createdAt,value
2023-02-25T00:01:30.021Z,4.37
2023-02-25T00:04:36.018Z,4.55
2023-02-25T00:07:43.738Z,4.59
2023-02-25T00:11:05.324Z,4.51
2023-02-25T00:14:14.612Z,4.39
2023-02-25T00:17:24.451Z,4.33
2023-02-25T00:20:31.295Z,4.43
2023-02-25T00:23:37.243Z,4.48
2023-02-25T00:26:44.067Z,4.53
2023-02-25T00:29:56.418Z,4.45
2023-02-25T00:33:11.215Z,4.33
2023-02-25T00:36:22.097Z,4.24
2023-02-25T00:39:42.531Z,4.20
2023-02-25T00:42:50.947Z,4.13
2023-02-25T00:46:04.649Z,4.11
2023-02-25T00:49:27.034Z,4.12
2023-02-25T00:52:38.603Z,4.10
2023-02-25T00:55:46.663Z,4.09
2023-02-25T00:58:57.629Z,4.13
2023-02-25T01:02:09.709Z,4.11
2023-02-25T01:05:20.266Z,4.07
2023-02-25T01:08:26.324Z,4.05
2023-02-25T01:11:37.863Z,4.03
2023-02-25T01:14:45.108Z,4.06
2023-02-25T01:17:55.219Z,3.96
2023-02-25T01:21:08.513Z,3.76
2023-02-25T01:24:19.005Z,3.71
2023-02-25T01:27:24.919Z,3.79
2023-02-25T01:30:31.815Z,3.71
2023-02-25T01:33:39.557Z,3.65
2023-02-25T01:36:50.235Z,3.58
2023-02-25T01:39:59.003Z,3.49
2023-02-25T01:43:09.956Z,3.46
2023-02-25T01:46:16.048Z,3.36
2023-02-25T01:49:32.930Z,3.13
2023-02-25T01:52:48.955Z,3.07
2023-02-25T01:56:04.718Z,3.22
2023-02-25T01:59:16.282Z,3.15
2023-02-25T02:02:26.940Z,2.86
2023-02-25T02:06:06.155Z,2.71
2023-02-25T02:09:27.737Z,2.87
2023-02-25T02:12:45.426Z,2.79
2023-02-25T02:16:15.181Z,2.72
2023-02-25T02:19:44.936Z,2.58
2023-02-25T02:23:22.973Z,2.54
2023-02-25T02:27:00.752Z,2.54
2023-02-25T02:30:51.515Z,2.59
2023-02-25T02:34:21.630Z,2.37
2023-02-25T02:37:42.971Z,2.25
2023-02-25T02:41:12.407Z,2.37
2023-02-25T02:44:33.138Z,2.46
2023-02-25T02:47:45.853Z,2.36
2023-02-25T02:51:05.276Z,2.39
2023-02-25T02:54:17.788Z,2.32
2023-02-25T02:57:29.490Z,2.29
2023-02-25T03:00:46.110Z,2.08
2023-02-25T03:04:02.681Z,1.88
2023-02-25T03:07:18.181Z,1.74
2023-02-25T03:10:26.565Z,1.77
2023-02-25T03:13:35.901Z,1.71
2023-02-25T03:16:54.306Z,1.66
2023-02-25T03:20:18.211Z,1.45
2023-02-25T03:23:35.909Z,1.39
2023-02-25T03:26:44.683Z,1.49
2023-02-25T03:29:54.833Z,1.44
2023-02-25T03:33:12.495Z,1.33
2023-02-25T03:36:27.162Z,1.34
2023-02-25T03:39:46.435Z,1.17
2023-02-25T03:43:03.209Z,1.22
2023-02-25T03:46:12.683Z,1.27
2023-02-25T03:49:27.364Z,1.10
2023-02-25T03:52:34.606Z,1.02
2023-02-25T03:55:47.782Z,0.73
2023-02-25T03:58:54.693Z,0.85
2023-02-25T04:02:04.595Z,0.79
2023-02-25T04:05:13.128Z,0.86
2023-02-25T04:08:19.680Z,0.79
2023-02-25T04:11:29.254Z,0.93
2023-02-25T04:14:35.097Z,0.88
2023-02-25T04:17:41.874Z,0.81
2023-02-25T04:20:48.078Z,0.85
2023-02-25T04:23:54.798Z,0.85
2023-02-25T04:27:03.626Z,0.95
2023-02-25T04:30:14.288Z,0.84
2023-02-25T04:33:20.201Z,0.87
2023-02-25T04:36:31.401Z,0.90
2023-02-25T04:39:37.274Z,0.72
2023-02-25T04:42:47.117Z,0.79
2023-02-25T04:45:52.886Z,0.78
2023-02-25T04:48:59.862Z,0.70
2023-02-25T04:52:06.063Z,0.68
2023-02-25T04:55:13.770Z,0.59
2023-02-25T04:58:24.414Z,0.50
2023-02-25T05:01:31.645Z,0.40
2023-02-25T05:04:38.046Z,0.48
2023-02-25T05:07:44.933Z,0.47
2023-02-25T05:10:50.864Z,0.42
2023-02-25T05:14:00.175Z,0.38
2023-02-25T05:17:06.134Z,0.48
2023-02-25T05:20:14.837Z,0.45
2023-02-25T05:23:20.715Z,0.36
2023-02-25T05:26:28.844Z,0.25
2023-02-25T05:29:37.798Z,0.14
2023-02-25T05:32:45.134Z,0.07
2023-02-25T05:35:51.367Z,0.02
2023-02-25T05:39:03.024Z,-0.00
2023-02-25T05:42:09.220Z,-0.01
2023-02-25T05:45:20.117Z,0.01
2023-02-25T05:48:26.814Z,-0.04
2023-02-25T05:51:33.598Z,-0.04
2023-02-25T05:54:39.635Z,0.11
2023-02-25T05:57:46.439Z,0.21
2023-02-25T06:00:54.996Z,0.15
2023-02-25T06:04:02.887Z,0.15
2023-02-25T06:07:08.785Z,0.21
2023-02-25T06:10:16.121Z,0.31
2023-02-25T06:13:22.025Z,0.18
2023-02-25T06:16:33.227Z,0.15
2023-02-25T06:19:39.328Z,0.25
2023-02-25T06:22:46.487Z,0.33
2023-02-25T06:25:52.438Z,0.27
2023-02-25T06:29:00.280Z,0.38
2023-02-25T06:32:08.915Z,0.46
2023-02-25T06:35:17.071Z,0.48
2023-02-25T06:38:23.570Z,0.53
2023-02-25T06:41:30.580Z,0.46
2023-02-25T06:44:36.496Z,0.56
2023-02-25T06:47:45.883Z,0.62
2023-02-25T06:50:52.739Z,0.50
2023-02-25T06:53:59.777Z,0.62
2023-02-25T06:57:06.035Z,0.59
2023-02-25T07:00:15.083Z,0.59
2023-02-25T07:03:23.930Z,0.72
2023-02-25T07:06:30.715Z,0.77
2023-02-25T07:09:36.582Z,0.91
2023-02-25T07:12:43.333Z,0.85
2023-02-25T07:15:49.313Z,0.92
2023-02-25T07:19:00.142Z,0.80
2023-02-25T07:22:06.400Z,0.81
2023-02-25T07:25:14.989Z,1.01
2023-02-25T07:28:20.909Z,1.05
2023-02-25T07:31:29.531Z,1.11
2023-02-25T07:34:40.475Z,1.14
2023-02-25T07:37:47.298Z,1.08
2023-02-25T07:40:53.302Z,1.14
2023-02-25T07:44:00.236Z,1.22
2023-02-25T07:47:06.135Z,1.21
2023-02-25T07:50:16.740Z,1.43
2023-02-25T07:53:23.189Z,1.86
2023-02-25T07:56:33.414Z,1.71
2023-02-25T07:59:39.345Z,2.12
2023-02-25T08:02:47.915Z,3.24
2023-02-25T08:05:57.703Z,3.16
2023-02-25T08:09:05.919Z,3.24
2023-02-25T08:12:12.366Z,3.18
2023-02-25T08:15:19.284Z,2.94
2023-02-25T08:18:26.081Z,2.76
2023-02-25T08:21:37.645Z,2.57
2023-02-25T08:24:43.945Z,2.72
2023-02-25T08:27:50.699Z,2.73
2023-02-25T08:30:57.669Z,2.68
2023-02-25T08:34:04.806Z,2.46
2023-02-25T08:37:15.310Z,2.35
2023-02-25T08:40:23.582Z,2.41
2023-02-25T08:43:29.604Z,2.38
2023-02-25T08:46:37.436Z,2.56
2023-02-25T08:49:44.347Z,2.58
2023-02-25T08:52:53.941Z,2.84
2023-02-25T08:55:59.813Z,2.77
2023-02-25T08:59:08.139Z,2.57
2023-02-25T09:02:17.632Z,2.66
2023-02-25T09:05:24.469Z,2.50
2023-02-25T09:08:32.941Z,2.84
2023-02-25T09:11:39.652Z,2.93
2023-02-25T09:14:45.518Z,2.70
2023-02-25T09:17:53.385Z,2.79
2023-02-25T09:20:59.602Z,2.96
2023-02-25T09:24:10.380Z,2.53
2023-02-25T09:27:16.720Z,2.37
2023-02-25T09:30:23.736Z,2.38
2023-02-25T09:33:30.106Z,2.33
2023-02-25T09:36:38.223Z,2.29
2023-02-25T09:39:46.862Z,2.43
2023-02-25T09:43:17.529Z,2.26
2023-02-25T09:46:23.812Z,2.16
2023-02-25T09:49:40.564Z,2.13
2023-02-25T09:53:00.573Z,1.99
2023-02-25T09:56:15.373Z,1.71
2023-02-25T09:59:24.707Z,1.76
2023-02-25T10:02:42.142Z,1.62
2023-02-25T10:06:03.453Z,1.45
2023-02-25T10:09:26.784Z,1.39
2023-02-25T10:12:46.864Z,1.33
2023-02-25T10:16:14.337Z,1.21
2023-02-25T10:19:45.759Z,1.29
2023-02-25T10:23:07.078Z,1.31
2023-02-25T10:26:23.082Z,1.54
2023-02-25T10:29:42.570Z,1.59
2023-02-25T10:32:49.963Z,1.72
2023-02-25T10:36:10.824Z,1.76
2023-02-25T10:39:16.876Z,1.43
2023-02-25T10:42:23.756Z,1.39
2023-02-25T10:45:35.404Z,1.32
2023-02-25T10:48:45.915Z,1.21
2023-02-25T10:52:03.476Z,1.06
2023-02-25T10:55:40.040Z,0.69
2023-02-25T10:59:01.909Z,0.60
2023-02-25T11:02:28.102Z,0.71
2023-02-25T11:05:39.206Z,0.96
2023-02-25T11:08:46.466Z,1.53
2023-02-25T11:11:59.998Z,2.16
2023-02-25T11:15:44.285Z,2.79
2023-02-25T11:19:03.000Z,3.61
2023-02-25T11:22:20.457Z,3.48
2023-02-25T11:25:43.799Z,3.82
2023-02-25T11:28:53.332Z,3.63
2023-02-25T11:32:10.670Z,3.45
2023-02-25T11:35:30.996Z,3.04
2023-02-25T11:38:40.380Z,3.03
2023-02-25T11:41:48.442Z,2.79
2023-02-25T11:45:04.081Z,2.63
2023-02-25T11:48:24.105Z,2.81
2023-02-25T11:51:47.201Z,2.77
2023-02-25T11:55:16.894Z,2.57
2023-02-25T11:58:41.178Z,2.53
2023-02-25T12:02:20.782Z,2.17
2023-02-25T12:05:51.020Z,1.97
2023-02-25T12:09:52.254Z,1.50
2023-02-25T12:13:51.708Z,1.28
2023-02-25T12:17:53.033Z,1.47
2023-02-25T12:21:45.078Z,1.36
2023-02-25T12:25:19.544Z,1.54
2023-02-25T12:29:00.644Z,1.38
2023-02-25T12:33:00.231Z,1.57
2023-02-25T12:36:44.118Z,1.60
2023-02-25T12:40:12.365Z,1.68
2023-02-25T12:43:38.602Z,1.67
2023-02-25T12:47:30.292Z,1.90
2023-02-25T12:51:16.016Z,2.00
2023-02-25T12:55:13.249Z,1.89
2023-02-25T12:59:07.659Z,1.88
2023-02-25T13:02:54.640Z,1.76
2023-02-25T13:06:42.733Z,1.58
2023-02-25T13:10:13.360Z,1.17
2023-02-25T13:14:08.717Z,1.23
2023-02-25T13:17:46.587Z,1.04
2023-02-25T13:21:38.021Z,1.17
2023-02-25T13:24:59.960Z,0.97
2023-02-25T13:28:45.481Z,0.92
2023-02-25T13:32:14.727Z,0.87
2023-02-25T13:35:42.827Z,1.13
2023-02-25T13:39:27.315Z,1.39
2023-02-25T13:43:03.960Z,1.51
2023-02-25T13:46:54.290Z,1.51
2023-02-25T13:50:28.309Z,1.57
2023-02-25T13:54:10.764Z,0.73
2023-02-25T13:57:43.210Z,-0.26
2023-02-25T14:01:35.883Z,-0.67
2023-02-25T14:05:22.040Z,-0.83
2023-02-25T14:08:59.967Z,-0.78
2023-02-25T14:12:30.821Z,-0.81
2023-02-25T14:16:08.072Z,-0.77
2023-02-25T14:19:39.730Z,-0.79
2023-02-25T14:22:54.740Z,-0.88
2023-02-25T14:26:29.165Z,-0.74
2023-02-25T14:30:02.342Z,-0.66
2023-02-25T14:33:37.838Z,-0.77
2023-02-25T14:37:25.528Z,-0.44
2023-02-25T14:40:44.389Z,-0.29
2023-02-25T14:43:58.508Z,-0.15
2023-02-25T14:47:14.186Z,-0.06
2023-02-25T14:50:32.474Z,-0.05
2023-02-25T14:54:23.546Z,-0.07
2023-02-25T14:58:32.146Z,0.09
2023-02-25T15:02:22.508Z,0.01
2023-02-25T15:05:58.563Z,0.03
2023-02-25T15:09:58.358Z,0.12
2023-02-25T15:13:44.757Z,-0.04
2023-02-25T15:17:40.006Z,0.00
2023-02-25T15:20:48.212Z,-0.14
2023-02-25T15:23:56.142Z,-0.32
2023-02-25T15:27:56.652Z,-0.29
2023-02-25T15:31:34.236Z,-0.42
2023-02-25T15:34:55.848Z,-0.31
2023-02-25T15:38:13.825Z,-0.52
2023-02-25T15:42:01.154Z,-0.61
2023-02-25T15:45:41.522Z,-0.52
2023-02-25T15:49:10.455Z,-0.46
2023-02-25T15:52:55.605Z,-0.48
2023-02-25T15:56:32.150Z,-0.38
2023-02-25T15:59:50.684Z,-0.71
2023-02-25T16:03:08.381Z,-0.86
2023-02-25T16:06:25.885Z,-0.86
2023-02-25T16:09:32.857Z,-0.82
2023-02-25T16:12:44.358Z,-0.90
2023-02-25T16:15:58.595Z,-1.04
2023-02-25T16:19:10.232Z,-1.05
2023-02-25T16:22:31.521Z,-0.95
2023-02-25T16:25:55.117Z,-0.98
2023-02-25T16:29:40.557Z,-1.01
2023-02-25T16:33:02.898Z,-1.10
2023-02-25T16:36:33.640Z,-1.00
2023-02-25T16:39:41.832Z,-0.87
2023-02-25T16:42:49.657Z,-0.86
2023-02-25T16:46:01.808Z,-0.93
2023-02-25T16:49:21.047Z,-0.88
2023-02-25T16:52:35.611Z,-0.81
2023-02-25T16:55:44.197Z,-0.75
2023-02-25T16:59:06.849Z,-0.64
2023-02-25T17:02:28.024Z,-0.74
2023-02-25T17:05:38.447Z,-0.79
2023-02-25T17:08:52.643Z,-0.78
2023-02-25T17:12:04.095Z,-0.82
2023-02-25T17:15:22.596Z,-0.94
2023-02-25T17:18:35.898Z,-0.82
2023-02-25T17:21:47.483Z,-0.81
2023-02-25T17:25:00.834Z,-0.72
2023-02-25T17:28:11.403Z,-0.82
2023-02-25T17:31:27.093Z,-0.76
2023-02-25T17:34:38.829Z,-0.84
2023-02-25T17:37:45.079Z,-0.86
2023-02-25T17:40:56.345Z,-0.79
2023-02-25T17:44:02.501Z,-0.57
2023-02-25T17:47:15.362Z,-0.46
2023-02-25T17:50:33.204Z,-0.50
2023-02-25T17:53:48.705Z,-0.62
2023-02-25T17:57:05.088Z,-0.65
2023-02-25T18:00:29.491Z,-0.74
2023-02-25T18:03:49.154Z,-0.77
2023-02-25T18:06:58.451Z,-0.80
2023-02-25T18:10:05.000Z,-0.77
2023-02-25T18:13:28.170Z,-0.83
2023-02-25T18:16:43.001Z,-0.82
2023-02-25T18:19:51.065Z,-0.82
2023-02-25T18:23:00.324Z,-0.92
2023-02-25T18:26:20.800Z,-0.86
2023-02-25T18:29:29.295Z,-0.67
2023-02-25T18:32:36.722Z,-0.59
2023-02-25T18:35:47.863Z,-0.76
2023-02-25T18:38:58.544Z,-0.78
2023-02-25T18:42:05.513Z,-0.67
2023-02-25T18:45:23.999Z,-0.87
2023-02-25T18:48:32.655Z,-0.81
2023-02-25T18:51:39.777Z,-0.84
2023-02-25T18:54:45.658Z,-0.91
2023-02-25T18:57:52.728Z,-0.96
2023-02-25T19:01:02.557Z,-0.92
2023-02-25T19:04:09.353Z,-1.00
2023-02-25T19:07:15.590Z,-0.96
2023-02-25T19:10:26.122Z,-1.02
2023-02-25T19:13:38.046Z,-0.97
2023-02-25T19:16:47.359Z,-1.06
2023-02-25T19:19:53.191Z,-0.95
2023-02-25T19:23:00.222Z,-0.94
2023-02-25T19:26:08.589Z,-0.82
2023-02-25T19:29:15.269Z,-0.78
2023-02-25T19:32:24.677Z,-0.81
2023-02-25T19:35:32.271Z,-0.81
2023-02-25T19:38:38.310Z,-0.86
2023-02-25T19:41:45.028Z,-0.82
2023-02-25T19:44:50.825Z,-0.88
2023-02-25T19:48:00.667Z,-0.88
2023-02-25T19:51:09.886Z,-0.85
2023-02-25T19:54:16.731Z,-0.91
2023-02-25T19:57:22.624Z,-0.87
2023-02-25T20:00:29.927Z,-0.93
2023-02-25T20:03:39.398Z,-0.88
2023-02-25T20:06:46.404Z,-0.95
2023-02-25T20:09:52.352Z,-1.05
2023-02-25T20:12:59.064Z,-1.14
2023-02-25T20:16:05.779Z,-1.08
2023-02-25T20:19:15.142Z,-1.11
2023-02-25T20:22:23.989Z,-1.27
2023-02-25T20:25:30.698Z,-1.41
2023-02-25T20:28:36.523Z,-1.46
2023-02-25T20:31:43.853Z,-1.58
2023-02-25T20:34:53.117Z,-1.61
2023-02-25T20:38:23.509Z,-1.75
2023-02-25T20:41:29.982Z,-1.74
2023-02-25T20:44:37.257Z,-1.74
2023-02-25T20:47:46.840Z,-1.82
2023-02-25T20:50:57.174Z,-1.87
2023-02-25T20:54:03.995Z,-1.81
2023-02-25T20:57:15.099Z,-1.87
2023-02-25T21:00:23.009Z,-1.92
2023-02-25T21:03:29.675Z,-1.89
2023-02-25T21:06:39.019Z,-1.80
2023-02-25T21:09:45.882Z,-1.93
2023-02-25T21:12:51.807Z,-2.18
2023-02-25T21:16:02.866Z,-2.03
2023-02-25T21:19:10.459Z,-2.20
2023-02-25T21:22:19.775Z,-2.13
2023-02-25T21:25:25.823Z,-2.14
2023-02-25T21:28:32.668Z,-2.16
2023-02-25T21:31:39.329Z,-2.19
2023-02-25T21:34:46.071Z,-2.11
2023-02-25T21:37:54.475Z,-2.15
2023-02-25T21:41:08.173Z,-2.05
2023-02-25T21:44:14.448Z,-2.03
2023-02-25T21:47:21.145Z,-2.07
2023-02-25T21:50:27.634Z,-2.24
2023-02-25T21:53:37.419Z,-2.15
2023-02-25T21:56:44.273Z,-2.06
2023-02-25T21:59:52.436Z,-2.11
2023-02-25T22:02:58.281Z,-2.11
2023-02-25T22:06:05.590Z,-2.15
2023-02-25T22:09:14.749Z,-2.03
2023-02-25T22:12:21.461Z,-2.17
2023-02-25T22:15:27.278Z,-2.18
2023-02-25T22:18:35.364Z,-2.23
2023-02-25T22:21:41.258Z,-2.16
2023-02-25T22:24:50.636Z,-1.99
2023-02-25T22:27:56.472Z,-2.03
2023-02-25T22:31:03.481Z,-2.05
2023-02-25T22:34:10.306Z,-2.02
2023-02-25T22:37:17.026Z,-2.01
2023-02-25T22:40:25.554Z,-2.02
2023-02-25T22:43:34.711Z,-1.94
2023-02-25T22:46:42.581Z,-1.91
2023-02-25T22:49:49.303Z,-2.04
2023-02-25T22:52:55.285Z,-2.23
2023-02-25T22:56:09.190Z,-2.26
2023-02-25T22:59:17.654Z,-2.31
2023-02-25T23:02:24.504Z,-2.41
2023-02-25T23:05:30.439Z,-2.26
2023-02-25T23:08:38.294Z,-2.27
2023-02-25T23:11:48.021Z,-2.23
2023-02-25T23:14:54.711Z,-2.27
2023-02-25T23:18:03.686Z,-2.17
2023-02-25T23:21:15.919Z,-2.32
2023-02-25T23:24:22.163Z,-2.26
2023-02-25T23:27:31.895Z,-2.24
2023-02-25T23:30:41.624Z,-2.25
2023-02-25T23:33:48.504Z,-2.37
2023-02-25T23:36:58.584Z,-2.19
2023-02-25T23:40:05.345Z,-2.38
2023-02-25T23:43:13.902Z,-2.48
2023-02-25T23:46:20.571Z,-2.40
2023-02-25T23:49:26.446Z,-2.31
2023-02-25T23:52:33.106Z,-2.34
2023-02-25T23:55:39.355Z,-2.30
2023-02-25T23:58:54.025Z,-2.42
